Time;durP1;ratioP1;P1;durP2;ratioP2;P2;SDS_P1;SDS_P2;PMS_P1;PMS_P2;Temp;Humidity;BMP_temperature;BMP_pressure;BME280_temperature;BME280_humidity;BME280_pressure;Samples;Min_cycle;Max_cycle;Signal;HPM_P1;HPM_P2
2023/07/29 00:01:01;;;;;;;6.68;3.20;;;18.10;83.50;;;;;;4959416;28;20658;-71
2023/07/29 00:03:27;;;;;;;6.50;3.40;;;18.20;83.60;;;;;;4950465;29;20031;-71
2023/07/29 00:05:53;;;;;;;6.13;3.13;;;18.20;83.80;;;;;;4949858;28;20035;-75
2023/07/29 00:08:18;;;;;;;5.65;2.83;;;18.20;83.80;;;;;;4949301;29;20030;-72
2023/07/29 00:10:44;;;;;;;5.80;2.92;;;18.20;83.90;;;;;;4949183;28;20388;-72
2023/07/29 00:13:10;;;;;;;5.82;3.10;;;18.10;84.10;;;;;;4947249;28;20039;-73
2023/07/29 00:15:36;;;;;;;5.72;3.10;;;18.20;84.10;;;;;;4949786;28;20059;-74
2023/07/29 00:18:01;;;;;;;6.10;2.80;;;18.10;84.20;;;;;;4951024;29;20047;-74
2023/07/29 00:20:27;;;;;;;6.85;3.10;;;18.10;84.30;;;;;;4948638;28;20432;-74
2023/07/29 00:22:54;;;;;;;6.10;3.15;;;18.10;84.40;;;;;;4950658;29;20101;-73
2023/07/29 00:25:20;;;;;;;7.43;3.17;;;18.10;84.40;;;;;;4949947;28;20506;-73
2023/07/29 00:27:46;;;;;;;7.10;3.35;;;18.10;84.50;;;;;;4951068;29;20034;-73
2023/07/29 00:30:12;;;;;;;7.85;3.35;;;18.10;84.50;;;;;;4948729;28;20031;-73
2023/07/29 00:32:38;;;;;;;6.15;3.47;;;18.10;84.50;;;;;;4948992;28;20355;-74
2023/07/29 00:35:04;;;;;;;7.60;3.10;;;18.10;84.50;;;;;;4948544;28;20089;-74
2023/07/29 00:37:30;;;;;;;5.80;2.92;;;18.10;84.60;;;;;;4949844;29;20109;-73
2023/07/29 00:39:56;;;;;;;7.63;3.55;;;18.10;84.50;;;;;;4948789;28;20035;-72
2023/07/29 00:42:22;;;;;;;6.45;3.58;;;18.10;84.60;;;;;;4967262;28;20499;-73
2023/07/29 00:44:47;;;;;;;7.03;3.58;;;18.10;84.60;;;;;;4972205;28;20022;-72
2023/07/29 00:47:15;;;;;;;6.90;3.50;;;18.10;84.60;;;;;;4957554;28;20035;-73
2023/07/29 00:49:42;;;;;;;7.72;3.50;;;18.10;84.60;;;;;;4950035;28;20833;-73
2023/07/29 00:52:11;;;;;;;9.23;3.85;;;18.10;84.60;;;;;;4966289;28;20035;-72
2023/07/29 00:54:36;;;;;;;6.40;3.45;;;18.10;84.60;;;;;;4964841;28;20372;-72
2023/07/29 00:57:03;;;;;;;6.03;3.05;;;18.10;84.70;;;;;;4965810;28;20039;-73
2023/07/29 00:59:30;;;;;;;6.40;2.97;;;18.10;84.80;;;;;;4968846;28;20074;-73
2023/07/29 01:01:56;;;;;;;5.40;3.00;;;18.10;84.70;;;;;;4966298;28;20130;-73
2023/07/29 01:04:21;;;;;;;7.75;3.58;;;18.10;84.80;;;;;;4967775;28;20038;-73
2023/07/29 01:06:53;;;;;;;7.65;3.45;;;18.10;84.80;;;;;;4965460;28;20039;-74
2023/07/29 01:09:55;;;;;;;8.93;3.75;;;18.00;84.90;;;;;;4966829;28;20038;-72
2023/07/29 01:12:42;;;;;;;7.93;3.45;;;18.00;84.90;;;;;;4965543;28;20039;-72
2023/07/29 01:15:24;;;;;;;7.18;3.50;;;17.90;84.80;;;;;;4965997;28;20027;-72
2023/07/29 01:17:54;;;;;;;7.78;3.88;;;17.80;85.00;;;;;;4948965;28;20047;-71
2023/07/29 01:20:21;;;;;;;7.22;3.55;;;17.80;85.20;;;;;;4946956;28;20047;-72
2023/07/29 01:22:48;;;;;;;7.03;3.67;;;17.80;85.30;;;;;;4968901;28;20033;-72
2023/07/29 01:25:13;;;;;;;7.43;3.90;;;17.80;85.30;;;;;;4967293;28;20380;-71
2023/07/29 01:27:42;;;;;;;7.95;3.88;;;17.80;85.50;;;;;;4950873;28;20034;-72
2023/07/29 01:30:08;;;;;;;8.00;3.60;;;17.80;85.40;;;;;;4946694;28;20038;-72
2023/07/29 01:33:10;;;;;;;7.43;3.75;;;17.80;85.40;;;;;;4948488;28;20031;-72
2023/07/29 01:35:46;;;;;;;9.88;4.28;;;17.80;85.50;;;;;;4971898;28;20066;-73
2023/07/29 01:38:19;;;;;;;6.70;3.25;;;17.70;85.40;;;;;;4946496;28;20176;-74
2023/07/29 01:40:45;;;;;;;6.20;3.60;;;17.70;85.40;;;;;;4953859;28;20061;-72
2023/07/29 01:43:11;;;;;;;7.70;3.67;;;17.70;85.60;;;;;;4955685;28;20055;-74
2023/07/29 01:45:38;;;;;;;7.70;3.88;;;17.70;85.50;;;;;;4954942;28;20054;-73
2023/07/29 01:48:05;;;;;;;7.18;4.00;;;17.60;85.50;;;;;;4968022;28;20037;-74
2023/07/29 01:50:31;;;;;;;7.25;4.13;;;17.60;85.50;;;;;;4964914;28;20046;-74
2023/07/29 01:52:58;;;;;;;6.97;3.80;;;17.60;85.60;;;;;;4968850;28;20026;-73
2023/07/29 01:55:23;;;;;;;7.10;3.58;;;17.60;85.70;;;;;;4966606;28;20050;-74
2023/07/29 01:57:49;;;;;;;7.47;3.88;;;17.70;85.70;;;;;;4967260;28;20476;-72
2023/07/29 02:00:15;;;;;;;7.93;3.95;;;17.70;85.60;;;;;;4965732;28;20035;-75
2023/07/29 02:02:41;;;;;;;9.32;4.22;;;17.60;85.50;;;;;;4965457;28;20110;-73
2023/07/29 02:05:07;;;;;;;6.95;3.97;;;17.60;85.50;;;;;;4967300;28;20547;-73
2023/07/29 02:07:32;;;;;;;6.78;3.97;;;17.60;85.50;;;;;;4967197;28;20038;-73
2023/07/29 02:09:58;;;;;;;5.90;3.22;;;17.60;85.50;;;;;;4966402;28;20035;-72
2023/07/29 02:12:24;;;;;;;8.02;4.40;;;17.60;85.40;;;;;;4955691;28;20027;-74
2023/07/29 02:14:50;;;;;;;7.13;3.70;;;17.60;85.40;;;;;;4954060;28;20066;-74
2023/07/29 02:17:15;;;;;;;6.32;3.50;;;17.60;85.40;;;;;;4954301;28;20035;-72
2023/07/29 02:19:41;;;;;;;5.63;3.38;;;17.60;85.40;;;;;;4955268;28;20033;-72
2023/07/29 02:22:07;;;;;;;7.55;3.70;;;17.60;85.40;;;;;;4968089;28;20228;-74
2023/07/29 02:24:32;;;;;;;8.10;3.95;;;17.60;85.30;;;;;;4967580;28;20027;-73
2023/07/29 02:26:58;;;;;;;6.50;3.60;;;17.50;85.30;;;;;;4966949;28;20046;-72
2023/07/29 02:29:24;;;;;;;7.18;3.50;;;17.50;85.30;;;;;;4968426;28;20360;-73
2023/07/29 02:31:50;;;;;;;5.70;3.30;;;17.50;85.40;;;;;;4965410;28;20055;-73
2023/07/29 02:34:16;;;;;;;5.80;3.28;;;17.50;85.50;;;;;;4966583;28;20026;-73
2023/07/29 02:36:42;;;;;;;7.47;3.90;;;17.40;85.50;;;;;;4966744;28;20027;-73
2023/07/29 02:39:08;;;;;;;7.00;3.85;;;17.40;85.50;;;;;;4968226;28;20039;-73
2023/07/29 02:41:33;;;;;;;6.32;3.53;;;17.40;85.60;;;;;;4965626;28;20053;-73
2023/07/29 02:43:59;;;;;;;6.68;3.70;;;17.40;85.70;;;;;;4967257;28;20030;-73
2023/07/29 02:46:25;;;;;;;6.55;3.40;;;17.40;85.70;;;;;;4966354;28;20114;-73
2023/07/29 02:48:51;;;;;;;9.38;4.07;;;17.30;85.80;;;;;;4967807;28;20491;-73
2023/07/29 02:51:16;;;;;;;7.53;3.63;;;17.30;85.80;;;;;;4965578;28;20164;-72
2023/07/29 02:53:42;;;;;;;8.57;3.83;;;17.20;85.90;;;;;;4966639;28;20133;-74
2023/07/29 02:56:09;;;;;;;6.15;3.40;;;17.20;86.20;;;;;;4964574;28;20377;-73
2023/07/29 02:58:36;;;;;;;6.85;3.60;;;17.20;86.20;;;;;;4971091;28;20026;-71
2023/07/29 03:01:05;;;;;;;6.80;3.67;;;17.20;86.20;;;;;;4967058;28;20031;-72
2023/07/29 03:03:32;;;;;;;7.38;4.07;;;17.20;86.20;;;;;;4966375;28;20090;-72
2023/07/29 03:06:04;;;;;;;8.60;4.32;;;17.20;86.30;;;;;;4966434;28;20031;-73
2023/07/29 03:08:30;;;;;;;7.80;4.40;;;17.30;86.30;;;;;;4967745;28;20407;-72
2023/07/29 03:10:57;;;;;;;6.97;3.88;;;17.30;86.20;;;;;;4974922;28;20035;-73
2023/07/29 03:13:22;;;;;;;7.95;3.70;;;17.20;86.30;;;;;;4971485;28;20145;-72
2023/07/29 03:15:48;;;;;;;8.07;4.20;;;17.30;86.30;;;;;;4977311;28;20067;-74
2023/07/29 03:18:15;;;;;;;7.00;4.10;;;17.30;86.30;;;;;;4969484;28;20198;-72
2023/07/29 03:20:40;;;;;;;6.97;4.07;;;17.20;86.30;;;;;;4975598;28;20113;-71
2023/07/29 03:23:06;;;;;;;7.38;3.88;;;17.30;86.30;;;;;;4975773;28;20458;-72
2023/07/29 03:25:32;;;;;;;7.45;4.10;;;17.20;86.30;;;;;;4976032;28;20045;-73
2023/07/29 03:27:58;;;;;;;9.55;4.25;;;17.20;86.30;;;;;;4970064;28;20038;-71
2023/07/29 03:30:23;;;;;;;7.13;4.10;;;17.30;86.30;;;;;;4969730;28;20039;-72
2023/07/29 03:32:49;;;;;;;6.50;3.88;;;17.20;86.30;;;;;;4970724;28;20077;-72
2023/07/29 03:35:15;;;;;;;8.65;4.32;;;17.20;86.40;;;;;;4968933;28;20105;-73
2023/07/29 03:37:41;;;;;;;8.20;3.78;;;17.20;86.30;;;;;;4970137;28;20057;-72
2023/07/29 03:40:09;;;;;;;7.93;4.15;;;17.30;86.30;;;;;;4971223;28;20022;-71
2023/07/29 03:42:35;;;;;;;7.20;4.45;;;17.30;86.20;;;;;;4973984;28;20078;-72
2023/07/29 03:45:01;;;;;;;7.50;4.57;;;17.20;86.30;;;;;;4973646;28;20105;-72
2023/07/29 03:47:27;;;;;;;8.13;3.95;;;17.20;86.40;;;;;;4968767;28;20031;-73
2023/07/29 03:49:53;;;;;;;7.93;4.32;;;17.30;86.40;;;;;;4970147;28;20030;-72
2023/07/29 03:52:18;;;;;;;8.52;4.50;;;17.20;86.60;;;;;;4969758;28;20510;-73
2023/07/29 03:54:44;;;;;;;10.27;4.60;;;17.20;86.60;;;;;;4970852;28;20043;-72
2023/07/29 03:57:10;;;;;;;7.45;3.92;;;17.20;86.60;;;;;;4968348;28;20042;-72
2023/07/29 03:59:35;;;;;;;10.15;4.38;;;17.10;86.70;;;;;;4970907;28;20026;-71
2023/07/29 04:02:01;;;;;;;8.52;4.80;;;17.10;86.70;;;;;;4965304;28;20472;-72
2023/07/29 04:04:27;;;;;;;8.80;4.47;;;17.10;86.80;;;;;;4969015;28;20431;-72
2023/07/29 04:06:52;;;;;;;7.00;4.00;;;17.10;87.10;;;;;;4969235;28;20038;-73
2023/07/29 04:09:18;;;;;;;8.68;4.65;;;17.10;87.10;;;;;;4969871;28;20423;-72
2023/07/29 04:11:44;;;;;;;9.88;5.03;;;17.00;87.30;;;;;;4967581;28;20340;-73
2023/07/29 04:14:09;;;;;;;8.95;4.20;;;16.90;87.50;;;;;;4975463;28;20038;-74
2023/07/29 04:16:35;;;;;;;7.75;4.43;;;16.90;87.70;;;;;;4975087;28;20030;-72
2023/07/29 04:19:01;;;;;;;7.93;4.35;;;16.90;87.80;;;;;;4976544;28;20031;-74
2023/07/29 04:21:26;;;;;;;9.88;4.50;;;16.90;87.90;;;;;;4967869;28;20031;-73
2023/07/29 04:23:52;;;;;;;7.57;3.97;;;17.00;87.90;;;;;;4969119;28;20559;-73
2023/07/29 04:26:18;;;;;;;8.27;4.40;;;16.90;87.80;;;;;;4964801;28;20129;-74
2023/07/29 04:28:43;;;;;;;7.68;4.35;;;16.90;87.80;;;;;;4970238;28;20037;-73
2023/07/29 04:31:09;;;;;;;7.72;3.85;;;16.90;87.90;;;;;;4967825;28;20043;-75
2023/07/29 04:33:35;;;;;;;8.05;4.28;;;16.90;87.90;;;;;;4969443;28;20062;-73
2023/07/29 04:36:01;;;;;;;7.03;4.03;;;16.90;87.90;;;;;;4968259;28;20488;-72
2023/07/29 04:38:32;;;;;;;6.85;3.72;;;17.00;87.80;;;;;;4969544;28;20038;-74
2023/07/29 04:41:01;;;;;;;8.82;4.22;;;17.00;87.70;;;;;;4968185;28;20104;-72
2023/07/29 04:43:31;;;;;;;7.68;4.07;;;17.00;87.60;;;;;;4959901;28;20018;-73
2023/07/29 04:45:56;;;;;;;8.23;4.40;;;17.00;87.50;;;;;;4974534;28;20042;-73
2023/07/29 04:48:22;;;;;;;10.27;4.63;;;17.00;87.60;;;;;;4984907;28;20088;-73
2023/07/29 04:50:48;;;;;;;11.07;4.07;;;17.00;87.50;;;;;;4966207;28;20045;-73
2023/07/29 04:53:14;;;;;;;8.38;4.20;;;17.00;87.60;;;;;;4967888;28;20467;-72
2023/07/29 04:55:42;;;;;;;8.32;4.03;;;17.00;87.60;;;;;;4966706;28;20039;-73
2023/07/29 04:58:08;;;;;;;9.48;3.65;;;17.10;87.60;;;;;;4967417;28;20038;-73
2023/07/29 05:00:34;;;;;;;7.50;3.70;;;17.10;87.50;;;;;;4961987;28;20031;-73
2023/07/29 05:03:01;;;;;;;8.00;3.90;;;17.10;87.60;;;;;;4950116;28;20248;-73
2023/07/29 05:05:27;;;;;;;7.68;4.03;;;17.30;87.40;;;;;;4964567;28;20114;-73
2023/07/29 05:07:52;;;;;;;7.57;3.60;;;17.40;87.20;;;;;;4963854;28;20149;-72
2023/07/29 05:10:19;;;;;;;9.10;4.00;;;17.50;86.90;;;;;;4955302;28;20447;-73
2023/07/29 05:12:44;;;;;;;7.53;4.10;;;17.60;86.40;;;;;;4947279;28;20029;-72
2023/07/29 05:15:10;;;;;;;11.02;4.35;;;17.60;86.20;;;;;;4951848;28;20014;-73
2023/07/29 05:17:36;;;;;;;9.65;4.35;;;17.80;85.80;;;;;;4952684;28;20213;-73
2023/07/29 05:20:02;;;;;;;7.03;3.72;;;18.00;85.40;;;;;;4950325;28;20034;-72
2023/07/29 05:22:27;;;;;;;8.65;4.00;;;18.10;85.20;;;;;;4949087;28;20035;-72
2023/07/29 05:24:53;;;;;;;6.25;3.60;;;18.20;84.10;;;;;;4949774;28;20027;-71
2023/07/29 05:27:19;;;;;;;8.55;3.35;;;18.40;83.80;;;;;;4967288;28;20038;-73
2023/07/29 05:29:44;;;;;;;6.97;3.60;;;18.80;83.20;;;;;;4967516;28;20030;-73
2023/07/29 05:32:10;;;;;;;6.47;2.97;;;19.90;80.40;;;;;;4952691;28;20040;-74
2023/07/29 05:34:37;;;;;;;8.13;3.35;;;21.00;75.10;;;;;;4948236;28;20098;-72
2023/07/29 05:37:02;;;;;;;7.45;3.00;;;21.10;74.20;;;;;;4960921;28;20174;-72
2023/07/29 05:39:29;;;;;;;5.88;2.63;;;21.20;73.40;;;;;;4963086;28;20390;-72
2023/07/29 05:41:55;;;;;;;6.20;3.15;;;21.30;72.00;;;;;;4957331;28;20059;-71
2023/07/29 05:44:21;;;;;;;5.50;2.90;;;21.00;72.50;;;;;;4951528;28;20039;-72
2023/07/29 05:46:47;;;;;;;8.35;3.20;;;20.60;74.00;;;;;;4965945;28;20042;-71
2023/07/29 05:49:13;;;;;;;6.25;3.10;;;20.10;76.00;;;;;;4967739;28;20026;-73
2023/07/29 05:51:38;;;;;;;6.03;3.28;;;19.90;77.00;;;;;;4960179;28;20941;-72
2023/07/29 05:54:04;;;;;;;7.25;3.00;;;19.60;77.60;;;;;;4967611;28;20103;-73
2023/07/29 05:56:31;;;;;;;6.28;3.47;;;19.60;78.40;;;;;;4962656;28;20030;-72
2023/07/29 05:58:57;;;;;;;4.60;2.67;;;19.60;78.00;;;;;;4965042;28;20497;-72
2023/07/29 06:01:23;;;;;;;7.47;3.50;;;19.50;78.90;;;;;;4968324;28;20042;-72
2023/07/29 06:03:49;;;;;;;5.90;2.70;;;19.40;79.20;;;;;;4968410;28;20057;-73
2023/07/29 06:06:15;;;;;;;7.38;2.85;;;19.30;79.20;;;;;;4965888;28;20074;-73
2023/07/29 06:08:41;;;;;;;6.38;3.35;;;19.10;79.50;;;;;;4957073;28;20496;-72
2023/07/29 06:11:06;;;;;;;5.68;2.97;;;19.00;80.20;;;;;;4959697;28;20062;-72
2023/07/29 06:13:32;;;;;;;6.32;3.45;;;18.90;80.50;;;;;;4950596;28;20031;-73
2023/07/29 06:15:58;;;;;;;6.97;3.30;;;18.90;80.60;;;;;;4951418;28;20416;-73
2023/07/29 06:18:24;;;;;;;7.15;3.47;;;18.90;80.70;;;;;;4958928;28;20035;-73
2023/07/29 06:20:50;;;;;;;5.47;3.08;;;18.90;81.10;;;;;;4948971;28;20046;-72
2023/07/29 06:23:16;;;;;;;8.13;3.45;;;18.90;81.40;;;;;;4948267;28;20754;-72
2023/07/29 06:25:42;;;;;;;7.30;3.45;;;18.90;81.40;;;;;;4956259;28;20045;-73
2023/07/29 06:28:09;;;;;;;8.82;3.65;;;19.00;80.90;;;;;;4967657;28;20096;-72
2023/07/29 06:30:35;;;;;;;6.45;3.25;;;19.00;80.90;;;;;;4961482;28;20480;-72
2023/07/29 06:33:00;;;;;;;6.95;3.42;;;19.00;81.20;;;;;;4946931;28;20036;-72
2023/07/29 06:35:26;;;;;;;6.90;3.47;;;19.10;81.00;;;;;;4952266;28;20627;-73
2023/07/29 06:37:52;;;;;;;5.72;2.97;;;19.30;80.80;;;;;;4945150;28;20090;-74
2023/07/29 06:40:17;;;;;;;6.78;3.00;;;19.50;80.40;;;;;;4951594;28;20094;-74
2023/07/29 06:42:43;;;;;;;5.68;3.22;;;19.50;79.60;;;;;;4952567;28;21005;-74
2023/07/29 06:45:10;;;;;;;7.50;3.42;;;19.50;79.30;;;;;;4968029;28;20023;-75
2023/07/29 06:47:35;;;;;;;6.18;2.90;;;19.60;79.30;;;;;;4971586;28;20027;-73
2023/07/29 06:50:01;;;;;;;8.02;3.30;;;19.60;79.10;;;;;;4978507;28;20030;-72
2023/07/29 06:52:26;;;;;;;6.35;3.17;;;19.60;78.80;;;;;;4967683;28;20284;-73
2023/07/29 06:54:52;;;;;;;6.05;3.00;;;19.50;79.10;;;;;;4971051;28;20688;-74
2023/07/29 06:57:18;;;;;;;5.95;3.03;;;19.50;79.20;;;;;;4970434;28;20486;-77
2023/07/29 06:59:43;;;;;;;5.95;2.90;;;19.50;79.80;;;;;;4970891;28;20227;-76
2023/07/29 07:02:09;;;;;;;7.68;3.17;;;19.60;79.50;;;;;;4968688;28;20038;-77
2023/07/29 07:04:35;;;;;;;7.10;3.15;;;19.70;79.20;;;;;;4975938;28;20035;-73
2023/07/29 07:07:00;;;;;;;5.72;2.72;;;19.90;78.90;;;;;;4953274;28;20117;-74
2023/07/29 07:09:26;;;;;;;6.95;2.90;;;20.10;78.50;;;;;;4945663;28;20039;-74
2023/07/29 07:11:52;;;;;;;6.22;2.85;;;20.20;78.10;;;;;;4944325;28;20032;-74
2023/07/29 07:14:18;;;;;;;5.50;2.70;;;20.30;77.70;;;;;;4947247;28;20031;-75
2023/07/29 07:16:44;;;;;;;6.13;2.83;;;20.30;77.30;;;;;;4949614;29;20336;-75
2023/07/29 07:19:10;;;;;;;5.00;2.40;;;20.50;76.70;;;;;;4950549;28;20110;-75
2023/07/29 07:21:36;;;;;;;6.03;2.38;;;20.60;76.70;;;;;;4942652;28;20035;-76
2023/07/29 07:24:01;;;;;;;4.07;2.28;;;20.80;76.40;;;;;;4950700;29;20036;-75
2023/07/29 07:26:27;;;;;;;4.80;2.28;;;21.00;76.20;;;;;;4947530;28;20047;-74
2023/07/29 07:28:53;;;;;;;5.55;2.45;;;21.30;75.30;;;;;;4949212;29;20027;-75
2023/07/29 07:31:18;;;;;;;5.35;2.67;;;21.60;74.10;;;;;;4948749;28;20065;-75
2023/07/29 07:33:44;;;;;;;4.85;2.20;;;21.90;73.00;;;;;;4950058;28;20034;-73
2023/07/29 07:36:10;;;;;;;4.43;2.40;;;22.30;72.30;;;;;;4949111;28;20495;-78
2023/07/29 07:38:36;;;;;;;4.50;2.17;;;22.60;71.80;;;;;;4940653;28;20062;-75
2023/07/29 07:41:02;;;;;;;4.70;2.22;;;22.80;70.60;;;;;;4948412;28;20586;-75
2023/07/29 07:43:28;;;;;;;4.57;1.90;;;23.00;70.10;;;;;;4945185;29;20523;-74
2023/07/29 07:46:01;;;;;;;6.07;2.15;;;23.20;69.80;;;;;;4948110;28;20054;-76
2023/07/29 07:48:28;;;;;;;5.45;2.45;;;23.20;69.00;;;;;;4942940;28;20023;-75
2023/07/29 07:50:53;;;;;;;6.53;2.75;;;23.00;69.00;;;;;;4948136;28;20023;-74
2023/07/29 07:53:19;;;;;;;4.53;2.38;;;23.00;69.90;;;;;;4949013;28;20094;-74
2023/07/29 07:55:45;;;;;;;4.70;2.05;;;23.10;69.10;;;;;;4947296;28;20126;-75
2023/07/29 07:58:11;;;;;;;4.22;2.15;;;23.30;69.40;;;;;;4947906;28;20575;-74
2023/07/29 08:00:37;;;;;;;5.72;2.50;;;23.50;68.00;;;;;;4940605;28;20039;-75
2023/07/29 08:03:03;;;;;;;5.35;2.10;;;23.60;67.90;;;;;;4941187;29;20035;-73
2023/07/29 08:05:29;;;;;;;5.28;2.22;;;23.80;67.50;;;;;;4944086;28;20110;-74
2023/07/29 08:07:54;;;;;;;4.32;2.15;;;24.00;67.70;;;;;;4946497;28;20032;-74
2023/07/29 08:10:20;;;;;;;3.85;2.17;;;23.90;66.00;;;;;;4944435;28;20090;-75
2023/07/29 08:12:46;;;;;;;4.65;1.90;;;24.10;66.60;;;;;;4944327;28;20023;-75
2023/07/29 08:15:11;;;;;;;4.03;2.10;;;24.30;65.80;;;;;;4947041;28;20027;-74
2023/07/29 08:17:37;;;;;;;6.10;2.10;;;24.40;65.00;;;;;;4948853;29;20043;-74
2023/07/29 08:20:03;;;;;;;4.78;2.22;;;24.60;65.40;;;;;;4948043;28;20046;-75
2023/07/29 08:22:29;;;;;;;4.88;2.05;;;24.60;64.10;;;;;;4946977;28;20263;-74
2023/07/29 08:24:54;;;;;;;5.50;2.08;;;24.40;64.00;;;;;;4946247;28;20031;-76
2023/07/29 08:27:20;;;;;;;6.28;2.30;;;24.30;64.80;;;;;;4950141;28;20127;-76
2023/07/29 08:29:47;;;;;;;3.85;2.10;;;24.50;64.80;;;;;;4945480;28;20181;-73
2023/07/29 08:32:13;;;;;;;6.13;2.70;;;24.40;64.50;;;;;;4946506;28;20039;-73
2023/07/29 08:34:39;;;;;;;8.18;2.47;;;24.20;65.00;;;;;;4949592;29;20039;-73
2023/07/29 08:37:05;;;;;;;5.63;2.55;;;23.90;66.00;;;;;;4949545;28;20070;-73
2023/07/29 08:39:31;;;;;;;5.15;2.00;;;23.80;65.90;;;;;;4949258;28;20114;-75
2023/07/29 08:42:11;;;;;;;5.18;2.58;;;23.60;66.30;;;;;;4949073;28;20138;-76
2023/07/29 08:44:44;;;;;;;6.18;2.63;;;23.40;67.00;;;;;;4946056;28;20033;-74
2023/07/29 08:47:10;;;;;;;4.63;2.20;;;23.10;67.60;;;;;;4948781;28;20142;-76
2023/07/29 08:49:37;;;;;;;7.13;2.70;;;23.00;68.80;;;;;;4945492;28;20110;-75
2023/07/29 08:52:04;;;;;;;5.10;2.60;;;22.90;68.60;;;;;;4947770;28;20047;-73
2023/07/29 08:54:30;;;;;;;5.07;2.50;;;22.60;69.10;;;;;;4948782;28;20031;-74
2023/07/29 08:56:56;;;;;;;4.78;2.30;;;22.60;69.70;;;;;;4944625;28;20074;-74
2023/07/29 08:59:23;;;;;;;5.97;2.65;;;22.40;70.10;;;;;;4948464;28;20071;-74
2023/07/29 09:01:50;;;;;;;6.10;2.72;;;22.40;71.90;;;;;;4944989;28;20221;-74
2023/07/29 09:04:16;;;;;;;5.63;2.55;;;22.40;72.30;;;;;;4937644;28;20118;-75
2023/07/29 09:06:43;;;;;;;5.05;2.60;;;22.60;71.50;;;;;;4946775;28;20126;-75
2023/07/29 09:09:09;;;;;;;4.20;2.10;;;22.60;70.70;;;;;;4946836;28;20031;-74
2023/07/29 09:11:35;;;;;;;4.53;2.15;;;22.60;70.70;;;;;;4946435;28;20062;-75
2023/07/29 09:14:01;;;;;;;4.28;2.20;;;22.60;69.10;;;;;;4943845;28;20059;-74
2023/07/29 09:16:27;;;;;;;4.20;2.20;;;22.60;69.50;;;;;;4944545;28;20059;-74
2023/07/29 09:18:55;;;;;;;4.70;2.38;;;22.70;69.70;;;;;;4945382;28;20035;-75
2023/07/29 09:21:28;;;;;;;4.32;2.28;;;22.60;69.80;;;;;;4943877;28;20039;-75
2023/07/29 09:23:54;;;;;;;6.15;2.70;;;22.50;69.90;;;;;;4945719;28;20069;-74
2023/07/29 09:26:27;;;;;;;5.82;2.40;;;22.40;69.90;;;;;;4942558;28;20027;-73
2023/07/29 09:28:55;;;;;;;4.60;2.53;;;22.40;70.10;;;;;;4947240;29;20136;-73
2023/07/29 09:31:23;;;;;;;6.25;2.60;;;22.30;70.30;;;;;;4946357;28;20447;-74
2023/07/29 09:33:49;;;;;;;5.93;2.50;;;22.30;70.40;;;;;;4940959;28;20031;-73
2023/07/29 09:36:15;;;;;;;4.55;2.50;;;22.20;71.00;;;;;;4944688;28;20461;-74
2023/07/29 09:38:41;;;;;;;5.05;2.65;;;22.20;71.70;;;;;;4946165;28;20171;-73
2023/07/29 09:41:07;;;;;;;5.75;2.70;;;22.10;72.70;;;;;;4946625;28;20150;-74
2023/07/29 09:43:34;;;;;;;5.72;3.13;;;22.10;72.60;;;;;;4944294;28;20042;-74
2023/07/29 09:46:06;;;;;;;4.30;2.75;;;21.90;73.10;;;;;;4945621;28;20061;-73
2023/07/29 09:48:36;;;;;;;4.43;2.40;;;22.00;74.10;;;;;;4956038;28;20520;-73
2023/07/29 09:51:12;;;;;;;6.72;2.72;;;22.40;72.10;;;;;;4945782;28;20042;-73
2023/07/29 09:53:46;;;;;;;5.53;2.35;;;22.50;71.40;;;;;;4939777;29;20218;-74
2023/07/29 09:56:13;;;;;;;5.80;2.40;;;22.40;72.10;;;;;;4944033;28;20027;-74
2023/07/29 09:58:39;;;;;;;4.28;2.50;;;22.30;72.90;;;;;;4942443;28;20032;-74
2023/07/29 10:01:06;;;;;;;4.47;2.35;;;22.10;73.70;;;;;;4944965;28;20042;-74
2023/07/29 10:03:33;;;;;;;4.30;2.38;;;21.80;76.20;;;;;;4943582;28;20039;-74
2023/07/29 10:06:06;;;;;;;4.28;2.30;;;21.60;77.40;;;;;;4942970;28;20039;-73
2023/07/29 10:08:35;;;;;;;4.77;2.97;;;21.80;77.90;;;;;;4945504;28;20035;-73
2023/07/29 10:11:01;;;;;;;6.38;2.88;;;21.70;77.40;;;;;;4943603;28;20035;-74
2023/07/29 10:13:28;;;;;;;4.03;2.60;;;21.80;78.20;;;;;;4944959;29;20114;-74
2023/07/29 10:15:55;;;;;;;6.93;3.20;;;21.80;77.80;;;;;;4944634;28;20462;-74
2023/07/29 10:18:23;;;;;;;4.97;3.17;;;21.60;78.20;;;;;;4947042;28;20039;-74
2023/07/29 10:20:51;;;;;;;4.85;3.05;;;21.50;78.90;;;;;;4948304;28;20058;-74
2023/07/29 10:23:18;;;;;;;5.82;3.40;;;21.40;79.40;;;;;;4948267;28;20074;-75
2023/07/29 10:26:04;;;;;;;5.82;2.88;;;21.30;80.30;;;;;;4949382;28;20487;-74
2023/07/29 10:28:31;;;;;;;6.43;3.28;;;21.10;80.60;;;;;;4939732;28;20050;-75
2023/07/29 10:30:58;;;;;;;5.50;2.95;;;21.00;81.30;;;;;;4950738;28;20027;-74
2023/07/29 10:33:24;;;;;;;5.40;2.90;;;20.80;81.90;;;;;;4947370;28;20066;-74
2023/07/29 10:35:52;;;;;;;6.65;3.22;;;20.60;82.80;;;;;;4957862;28;20157;-75
2023/07/29 10:38:19;;;;;;;7.07;3.38;;;20.40;83.60;;;;;;4968751;28;20034;-74
2023/07/29 10:41:03;;;;;;;5.32;3.30;;;20.30;84.50;;;;;;4970865;28;20396;-73
2023/07/29 10:43:38;;;;;;;7.28;3.60;;;20.20;84.90;;;;;;4948307;28;20040;-74
2023/07/29 10:46:17;;;;;;;7.38;3.58;;;20.30;85.60;;;;;;4949112;28;20028;-74
2023/07/29 10:48:51;;;;;;;7.25;2.80;;;20.30;85.90;;;;;;4950023;28;20035;-76
2023/07/29 10:51:37;;;;;;;4.68;2.75;;;20.50;84.70;;;;;;4950390;28;20035;-74
2023/07/29 10:54:10;;;;;;;5.93;2.67;;;20.50;83.60;;;;;;4979299;28;20105;-74
2023/07/29 10:56:42;;;;;;;5.10;2.67;;;20.40;83.00;;;;;;4948931;28;20043;-74
2023/07/29 10:59:17;;;;;;;3.80;2.40;;;20.40;83.30;;;;;;4950097;28;20125;-75
2023/07/29 11:01:54;;;;;;;6.07;2.60;;;20.50;83.00;;;;;;4945755;28;20118;-75
2023/07/29 11:04:26;;;;;;;7.20;3.05;;;20.60;82.20;;;;;;4945446;28;20016;-73
2023/07/29 11:07:28;;;;;;;5.53;2.90;;;20.60;82.30;;;;;;4938832;28;20058;-73
2023/07/29 11:09:57;;;;;;;5.45;2.47;;;21.00;82.20;;;;;;4932247;28;20041;-75
2023/07/29 11:12:45;;;;;;;4.57;2.40;;;21.30;81.40;;;;;;4936959;28;20038;-76
2023/07/29 11:15:11;;;;;;;6.47;2.55;;;21.60;80.40;;;;;;4940282;28;20023;-74
2023/07/29 11:17:44;;;;;;;4.45;2.78;;;21.70;80.30;;;;;;4960912;28;20442;-75
2023/07/29 11:20:11;;;;;;;4.93;2.95;;;22.10;81.90;;;;;;4960319;28;20166;-73
2023/07/29 11:22:38;;;;;;;5.43;2.55;;;22.60;79.40;;;;;;4952455;28;20015;-74
2023/07/29 11:25:05;;;;;;;4.70;2.75;;;22.70;78.30;;;;;;4960270;28;20050;-74
2023/07/29 11:27:31;;;;;;;5.38;3.00;;;22.80;77.70;;;;;;4960655;28;20053;-75
2023/07/29 11:29:58;;;;;;;4.85;3.10;;;22.90;76.60;;;;;;4964096;28;20137;-74
2023/07/29 11:32:25;;;;;;;5.50;3.10;;;23.00;76.70;;;;;;4959732;28;20121;-74
2023/07/29 11:34:50;;;;;;;4.68;2.90;;;23.20;77.10;;;;;;4968493;28;20026;-75
2023/07/29 11:37:17;;;;;;;4.45;2.80;;;23.50;76.80;;;;;;4966703;28;20031;-74
2023/07/29 11:39:44;;;;;;;5.20;2.72;;;23.80;75.50;;;;;;4967256;28;20043;-75
2023/07/29 11:42:13;;;;;;;4.00;2.50;;;24.10;74.00;;;;;;4962719;28;20047;-76
2023/07/29 11:44:39;;;;;;;3.95;2.40;;;24.10;72.70;;;;;;4969282;28;20034;-75
2023/07/29 11:47:09;;;;;;;5.03;2.42;;;24.20;73.00;;;;;;4950540;28;20067;-76
2023/07/29 11:49:37;;;;;;;5.82;2.38;;;24.30;71.20;;;;;;4956255;28;20027;-76
2023/07/29 11:52:09;;;;;;;5.47;2.53;;;24.20;71.20;;;;;;4965677;28;20046;-75
2023/07/29 11:54:38;;;;;;;4.78;2.28;;;24.60;71.00;;;;;;4968990;28;20054;-75
2023/07/29 11:57:07;;;;;;;4.30;2.13;;;24.80;68.70;;;;;;4968468;28;20114;-74
2023/07/29 11:59:35;;;;;;;5.55;2.60;;;24.40;69.70;;;;;;4972583;28;20153;-74
2023/07/29 12:02:05;;;;;;;4.47;2.20;;;24.50;69.60;;;;;;4968273;28;20039;-74
2023/07/29 12:04:33;;;;;;;3.45;2.10;;;24.30;68.60;;;;;;4965763;28;20119;-75
2023/07/29 12:07:03;;;;;;;4.82;2.22;;;24.30;69.30;;;;;;4964279;28;20097;-74
2023/07/29 12:09:33;;;;;;;3.75;2.08;;;24.30;68.50;;;;;;4968693;28;20043;-74
2023/07/29 12:12:05;;;;;;;4.30;1.98;;;24.30;69.20;;;;;;4965877;28;20109;-74
2023/07/29 12:14:36;;;;;;;6.75;2.35;;;24.40;67.90;;;;;;4969286;28;20122;-74
2023/07/29 12:17:04;;;;;;;3.95;2.15;;;24.40;66.60;;;;;;4963445;28;20049;-74
2023/07/29 12:19:34;;;;;;;5.00;2.13;;;24.10;66.70;;;;;;4967687;28;20131;-74
2023/07/29 12:22:01;;;;;;;3.80;2.08;;;24.30;68.20;;;;;;4967716;28;20054;-74
2023/07/29 12:24:26;;;;;;;3.45;2.15;;;24.10;67.60;;;;;;4967576;28;20114;-73
2023/07/29 12:26:52;;;;;;;4.85;2.20;;;24.10;68.30;;;;;;4969626;28;20030;-74
2023/07/29 12:29:19;;;;;;;3.38;1.98;;;24.20;68.60;;;;;;4967457;28;20051;-74
2023/07/29 12:31:46;;;;;;;3.88;2.20;;;24.60;68.60;;;;;;4969831;28;20076;-73
2023/07/29 12:34:21;;;;;;;4.60;2.13;;;24.90;66.60;;;;;;4968836;28;20046;-75
2023/07/29 12:36:51;;;;;;;6.05;2.70;;;24.90;65.90;;;;;;4966532;28;20030;-74
2023/07/29 12:39:17;;;;;;;9.13;2.67;;;25.00;66.10;;;;;;4968785;28;20031;-73
2023/07/29 12:41:43;;;;;;;7.10;2.28;;;24.90;66.90;;;;;;4961085;28;20050;-74
2023/07/29 12:44:09;;;;;;;5.55;2.35;;;24.90;67.40;;;;;;4953255;28;20049;-74
2023/07/29 12:46:34;;;;;;;4.18;2.13;;;25.10;66.30;;;;;;4948529;28;20416;-74